Time;durP1;ratioP1;P1;durP2;ratioP2;P2;SDS_P1;SDS_P2;PMS_P1;PMS_P2;Temp;Humidity;BMP_temperature;BMP_pressure;BME280_temperature;BME280_humidity;BME280_pressure;Samples;Min_cycle;Max_cycle;Signal;HPM_P1;HPM_P2
2023/04/10 00:00:18;;;;;;;11.63;6.78;;;;;;;;;;5009723;28;20049;-57
2023/04/10 00:02:44;;;;;;;12.90;7.22;;;;;;;;;;5008270;28;20046;-58
2023/04/10 00:05:10;;;;;;;11.15;6.55;;;;;;;;;;5010150;28;20049;-58
2023/04/10 00:07:36;;;;;;;11.70;6.05;;;;;;;;;;5010386;28;20045;-58
2023/04/10 00:10:02;;;;;;;10.23;6.05;;;;;;;;;;5009279;28;20050;-58
2023/04/10 00:12:29;;;;;;;13.90;6.78;;;;;;;;;;5006940;28;20042;-58
2023/04/10 00:14:55;;;;;;;14.52;7.57;;;;;;;;;;5008431;28;20709;-58
2023/04/10 00:17:21;;;;;;;13.55;7.25;;;;;;;;;;5009240;28;20328;-58
2023/04/10 00:19:47;;;;;;;12.65;7.35;;;;;;;;;;5009239;28;20491;-59
2023/04/10 00:22:14;;;;;;;13.02;7.43;;;;;;;;;;5010449;28;20034;-58
2023/04/10 00:24:40;;;;;;;13.68;7.47;;;;;;;;;;5009843;28;20419;-57
2023/04/10 00:27:06;;;;;;;14.05;7.10;;;;;;;;;;5010318;28;20026;-59
2023/04/10 00:29:32;;;;;;;15.07;8.02;;;;;;;;;;5008776;28;20419;-59
2023/04/10 00:31:59;;;;;;;12.85;7.15;;;;;;;;;;5008622;28;20038;-57
2023/04/10 00:34:25;;;;;;;13.30;7.30;;;;;;;;;;5009761;28;20038;-58
2023/04/10 00:36:51;;;;;;;14.55;7.07;;;;;;;;;;5010105;28;20041;-58
2023/04/10 00:39:18;;;;;;;13.55;7.53;;;;;;;;;;5008629;28;20056;-58
2023/04/10 00:41:44;;;;;;;12.48;7.13;;;;;;;;;;5008826;28;20033;-59
2023/04/10 00:44:10;;;;;;;14.00;7.10;;;;;;;;;;4988565;28;20034;-58
2023/04/10 00:46:39;;;;;;;12.73;7.32;;;;;;;;;;5005604;28;20038;-58
2023/04/10 00:49:05;;;;;;;12.88;6.75;;;;;;;;;;5009265;28;20389;-58
2023/04/10 00:51:32;;;;;;;11.95;7.13;;;;;;;;;;5004737;28;20038;-58
2023/04/10 00:54:00;;;;;;;11.65;6.65;;;;;;;;;;5009319;28;20061;-57
2023/04/10 00:56:26;;;;;;;11.20;6.97;;;;;;;;;;5008771;28;20041;-57
2023/04/10 00:58:52;;;;;;;12.25;7.18;;;;;;;;;;4991046;28;20048;-58
2023/04/10 01:01:18;;;;;;;11.88;6.55;;;;;;;;;;5007043;28;20033;-58
2023/04/10 01:03:45;;;;;;;11.20;6.43;;;;;;;;;;5009008;28;20065;-57
2023/04/10 01:06:11;;;;;;;11.68;6.60;;;;;;;;;;5007721;28;20057;-58
2023/04/10 01:08:52;;;;;;;11.68;6.78;;;;;;;;;;5009471;28;20057;-58
2023/04/10 01:11:33;;;;;;;12.95;6.70;;;;;;;;;;5005938;28;20033;-58
2023/04/10 01:14:25;;;;;;;10.40;6.45;;;;;;;;;;5004561;28;20034;-58
2023/04/10 01:17:02;;;;;;;12.40;6.60;;;;;;;;;;5009361;28;20436;-58
2023/04/10 01:19:28;;;;;;;11.45;6.63;;;;;;;;;;5006874;28;20042;-58
2023/04/10 01:21:55;;;;;;;12.25;6.18;;;;;;;;;;5008492;28;20053;-59
2023/04/10 01:24:27;;;;;;;13.23;6.72;;;;;;;;;;5007203;28;20029;-57
2023/04/10 01:27:21;;;;;;;12.85;6.55;;;;;;;;;;5003756;28;20034;-58
2023/04/10 01:29:54;;;;;;;10.60;6.10;;;;;;;;;;5037850;28;20579;-58
2023/04/10 01:32:21;;;;;;;12.15;6.80;;;;;;;;;;5008360;28;20411;-58
2023/04/10 01:34:54;;;;;;;10.20;6.40;;;;;;;;;;5006573;28;20411;-57
2023/04/10 01:37:29;;;;;;;12.00;6.70;;;;;;;;;;5034028;28;20042;-58
2023/04/10 01:40:02;;;;;;;13.05;6.40;;;;;;;;;;5008594;28;20069;-58
2023/04/10 01:42:34;;;;;;;13.20;6.32;;;;;;;;;;5013378;28;20030;-58
2023/04/10 01:45:03;;;;;;;11.93;6.55;;;;;;;;;;5007827;28;20041;-57
2023/04/10 01:47:30;;;;;;;11.13;6.65;;;;;;;;;;5008197;28;20042;-57
2023/04/10 01:49:56;;;;;;;11.80;6.97;;;;;;;;;;5009509;28;20054;-58
2023/04/10 01:52:24;;;;;;;17.73;9.07;;;;;;;;;;4992310;28;20030;-56
2023/04/10 01:55:01;;;;;;;14.07;7.45;;;;;;;;;;5008048;28;20034;-59
2023/04/10 01:57:35;;;;;;;11.98;6.22;;;;;;;;;;5009578;28;20034;-58
2023/04/10 02:00:03;;;;;;;12.20;7.43;;;;;;;;;;5006236;28;20048;-57
2023/04/10 02:02:31;;;;;;;14.70;7.55;;;;;;;;;;5009139;28;20053;-58
2023/04/10 02:04:57;;;;;;;10.63;6.50;;;;;;;;;;5008783;28;20053;-58
2023/04/10 02:07:42;;;;;;;10.82;6.70;;;;;;;;;;5006224;28;20053;-58
2023/04/10 02:10:17;;;;;;;9.50;5.95;;;;;;;;;;5007059;28;20046;-59
2023/04/10 02:12:59;;;;;;;11.93;6.38;;;;;;;;;;5007168;28;20411;-58
2023/04/10 02:15:29;;;;;;;10.55;6.40;;;;;;;;;;5009831;28;20052;-59
2023/04/10 02:17:58;;;;;;;11.88;7.00;;;;;;;;;;5015375;28;20045;-58
2023/04/10 02:20:25;;;;;;;13.25;7.22;;;;;;;;;;5011139;28;20470;-58
2023/04/10 02:22:53;;;;;;;11.32;6.32;;;;;;;;;;5012670;28;20045;-58
2023/04/10 02:25:19;;;;;;;10.48;6.28;;;;;;;;;;5012748;28;20029;-58
2023/04/10 02:27:45;;;;;;;10.70;6.32;;;;;;;;;;5011809;28;20097;-59
2023/04/10 02:30:11;;;;;;;10.60;6.40;;;;;;;;;;5011271;28;20061;-58
2023/04/10 02:32:38;;;;;;;11.57;6.80;;;;;;;;;;5011633;28;20408;-57
2023/04/10 02:35:07;;;;;;;10.52;6.38;;;;;;;;;;5011222;28;20041;-58
2023/04/10 02:37:36;;;;;;;11.68;6.57;;;;;;;;;;5012718;28;20050;-56
2023/04/10 02:40:03;;;;;;;13.23;7.10;;;;;;;;;;5010691;28;20403;-57
2023/04/10 02:42:38;;;;;;;15.80;7.30;;;;;;;;;;5011448;28;20038;-59
2023/04/10 02:45:05;;;;;;;12.57;6.50;;;;;;;;;;5010078;28;20037;-58
2023/04/10 02:47:36;;;;;;;11.13;6.75;;;;;;;;;;5008099;28;20033;-57
2023/04/10 02:50:02;;;;;;;13.35;7.00;;;;;;;;;;5012112;28;20616;-57
2023/04/10 02:52:34;;;;;;;14.88;7.70;;;;;;;;;;5011123;28;20053;-57
2023/04/10 02:55:00;;;;;;;14.73;7.05;;;;;;;;;;5010228;28;20372;-58
2023/04/10 02:57:31;;;;;;;13.00;7.10;;;;;;;;;;5011261;28;20515;-58
2023/04/10 02:59:57;;;;;;;12.40;7.10;;;;;;;;;;5011005;28;20044;-57
2023/04/10 03:02:25;;;;;;;12.85;6.95;;;;;;;;;;5010812;28;20041;-57
2023/04/10 03:04:52;;;;;;;13.98;7.18;;;;;;;;;;5008079;28;20040;-58
2023/04/10 03:07:19;;;;;;;13.82;6.88;;;;;;;;;;5008379;28;20057;-58
2023/04/10 03:09:45;;;;;;;14.13;7.20;;;;;;;;;;5006987;28;20053;-57
2023/04/10 03:12:11;;;;;;;12.63;6.97;;;;;;;;;;5007329;28;20361;-58
2023/04/10 03:14:39;;;;;;;12.85;6.20;;;;;;;;;;5010948;28;20049;-58
2023/04/10 03:17:06;;;;;;;13.02;6.80;;;;;;;;;;5006765;28;20054;-59
2023/04/10 03:19:33;;;;;;;13.32;6.47;;;;;;;;;;5005393;28;20049;-58
2023/04/10 03:21:59;;;;;;;11.73;6.43;;;;;;;;;;5011545;28;20032;-57
2023/04/10 03:24:26;;;;;;;13.35;6.55;;;;;;;;;;5011384;28;20029;-58
2023/04/10 03:26:52;;;;;;;10.13;6.20;;;;;;;;;;5009524;28;20042;-57
2023/04/10 03:29:18;;;;;;;12.93;7.13;;;;;;;;;;4992738;28;20514;-57
2023/04/10 03:31:44;;;;;;;15.38;7.07;;;;;;;;;;5009019;28;20033;-58
2023/04/10 03:34:11;;;;;;;12.68;6.63;;;;;;;;;;5009692;28;20085;-58
2023/04/10 03:36:37;;;;;;;11.90;7.32;;;;;;;;;;5009992;28;20049;-57
2023/04/10 03:39:03;;;;;;;11.23;5.90;;;;;;;;;;5015509;28;20038;-57
2023/04/10 03:41:30;;;;;;;13.65;6.63;;;;;;;;;;5009989;28;20488;-58
2023/04/10 03:43:56;;;;;;;13.57;6.35;;;;;;;;;;5010399;28;20041;-58
2023/04/10 03:46:23;;;;;;;16.05;8.10;;;;;;;;;;5010940;28;20044;-59
2023/04/10 03:48:52;;;;;;;14.40;7.10;;;;;;;;;;5010372;28;20046;-59
2023/04/10 03:51:19;;;;;;;12.10;6.60;;;;;;;;;;5009678;28;20033;-57
2023/04/10 03:53:46;;;;;;;11.45;6.20;;;;;;;;;;4992900;28;20034;-58
2023/04/10 03:56:15;;;;;;;13.75;6.63;;;;;;;;;;5009316;28;20550;-57
2023/04/10 03:58:41;;;;;;;10.63;5.65;;;;;;;;;;5007269;28;20042;-58
2023/04/10 04:01:08;;;;;;;12.48;6.38;;;;;;;;;;5008725;28;20037;-58
2023/04/10 04:03:50;;;;;;;11.23;5.70;;;;;;;;;;5008927;28;20046;-57
2023/04/10 04:06:27;;;;;;;11.15;5.70;;;;;;;;;;5009489;28;20408;-57
2023/04/10 04:09:12;;;;;;;10.90;5.90;;;;;;;;;;5007207;28;20041;-58
2023/04/10 04:11:56;;;;;;;13.27;6.40;;;;;;;;;;5006372;28;20045;-58
2023/04/10 04:14:34;;;;;;;14.48;7.30;;;;;;;;;;5010332;28;20492;-58
2023/04/10 04:17:19;;;;;;;11.65;6.10;;;;;;;;;;5010647;28;20054;-58
2023/04/10 04:20:14;;;;;;;12.15;6.28;;;;;;;;;;5007207;28;20034;-58
2023/04/10 04:22:41;;;;;;;13.10;6.38;;;;;;;;;;5010316;28;20037;-58
2023/04/10 04:25:30;;;;;;;10.13;5.38;;;;;;;;;;4996419;28;20057;-58
2023/04/10 04:28:12;;;;;;;12.30;6.10;;;;;;;;;;5010065;28;20066;-58
2023/04/10 04:30:58;;;;;;;13.00;6.27;;;;;;;;;;5009310;28;20412;-58
2023/04/10 04:33:39;;;;;;;15.32;6.55;;;;;;;;;;5008795;28;20299;-57
2023/04/10 04:36:26;;;;;;;12.98;6.50;;;;;;;;;;5004750;28;20049;-57
2023/04/10 04:39:19;;;;;;;14.95;6.40;;;;;;;;;;5007951;28;20506;-57
2023/04/10 04:42:08;;;;;;;12.43;6.50;;;;;;;;;;5004701;28;20499;-58
2023/04/10 04:45:02;;;;;;;10.85;6.50;;;;;;;;;;5008174;28;20056;-58
2023/04/10 04:47:46;;;;;;;12.32;6.60;;;;;;;;;;5007998;28;20029;-58
2023/04/10 04:50:40;;;;;;;15.77;7.80;;;;;;;;;;5011676;28;20053;-58
2023/04/10 04:53:14;;;;;;;15.25;7.10;;;;;;;;;;5008101;28;20036;-58
2023/04/10 04:55:59;;;;;;;13.02;7.03;;;;;;;;;;5008253;28;20041;-58
2023/04/10 04:58:43;;;;;;;16.10;7.45;;;;;;;;;;5007991;28;20041;-58
2023/04/10 05:01:31;;;;;;;15.65;7.50;;;;;;;;;;5005240;28;20036;-57
2023/04/10 05:04:03;;;;;;;16.83;8.27;;;;;;;;;;5001825;28;20423;-57
2023/04/10 05:06:55;;;;;;;19.25;9.00;;;;;;;;;;4999510;28;20052;-57
2023/04/10 05:09:40;;;;;;;22.27;9.27;;;;;;;;;;5006234;28;20037;-56
2023/04/10 05:12:17;;;;;;;24.33;9.52;;;;;;;;;;5005586;28;20049;-57
2023/04/10 05:14:55;;;;;;;28.92;11.73;;;;;;;;;;5004258;28;20566;-57
2023/04/10 05:17:44;;;;;;;43.97;15.30;;;;;;;;;;5006028;28;20042;-56
2023/04/10 05:20:36;;;;;;;68.63;21.33;;;;;;;;;;5000437;28;20550;-56
2023/04/10 05:23:20;;;;;;;48.60;15.80;;;;;;;;;;5003797;28;20515;-56
2023/04/10 05:26:05;;;;;;;27.38;11.23;;;;;;;;;;5009469;28;20034;-57
2023/04/10 05:28:57;;;;;;;27.13;11.02;;;;;;;;;;5006477;28;20073;-56
2023/04/10 05:31:32;;;;;;;29.05;10.88;;;;;;;;;;5008296;28;20057;-56
2023/04/10 05:34:27;;;;;;;25.23;10.35;;;;;;;;;;5008691;28;20046;-57
2023/04/10 05:37:10;;;;;;;20.30;9.38;;;;;;;;;;5007970;28;20050;-56
2023/04/10 05:39:55;;;;;;;20.13;9.57;;;;;;;;;;5006557;28;20411;-55
2023/04/10 05:42:41;;;;;;;27.05;11.75;;;;;;;;;;5005372;28;20064;-57
2023/04/10 05:45:20;;;;;;;24.60;10.63;;;;;;;;;;5007844;28;20044;-57
2023/04/10 05:47:59;;;;;;;27.52;11.93;;;;;;;;;;5004436;28;20038;-55
2023/04/10 05:50:34;;;;;;;19.90;9.68;;;;;;;;;;5007282;28;20397;-55
2023/04/10 05:53:11;;;;;;;16.38;8.68;;;;;;;;;;5010956;28;20038;-57
2023/04/10 05:56:00;;;;;;;15.50;7.93;;;;;;;;;;5010398;28;20060;-57
2023/04/10 05:58:39;;;;;;;13.38;7.57;;;;;;;;;;5012844;28;20041;-58
2023/04/10 06:01:23;;;;;;;13.98;5.85;;;;;;;;;;5009449;28;20056;-56
2023/04/10 06:03:56;;;;;;;10.15;5.22;;;;;;;;;;5009403;28;20117;-56
2023/04/10 06:06:25;;;;;;;9.73;5.32;;;;;;;;;;5008943;28;20041;-58
2023/04/10 06:08:51;;;;;;;9.30;4.80;;;;;;;;;;5012520;28;20053;-55
2023/04/10 06:11:17;;;;;;;10.90;4.88;;;;;;;;;;5011941;28;20060;-56
2023/04/10 06:13:49;;;;;;;11.20;5.43;;;;;;;;;;5010606;28;20407;-56
2023/04/10 06:16:15;;;;;;;10.23;5.20;;;;;;;;;;5011231;28;20037;-58
2023/04/10 06:18:43;;;;;;;8.70;4.90;;;;;;;;;;5011360;28;20049;-56
2023/04/10 06:21:09;;;;;;;9.95;4.93;;;;;;;;;;5010766;28;20511;-56
2023/04/10 06:23:36;;;;;;;9.98;5.18;;;;;;;;;;5014318;28;20037;-56
2023/04/10 06:26:02;;;;;;;8.25;5.10;;;;;;;;;;5005808;28;20056;-56
2023/04/10 06:28:29;;;;;;;8.98;4.78;;;;;;;;;;5010948;28;20476;-58
2023/04/10 06:31:02;;;;;;;9.43;5.18;;;;;;;;;;4994411;28;20034;-57
2023/04/10 06:33:34;;;;;;;9.50;4.80;;;;;;;;;;5017384;28;20049;-57
2023/04/10 06:36:02;;;;;;;8.55;4.63;;;;;;;;;;5010267;28;20042;-57
2023/04/10 06:38:36;;;;;;;10.30;5.78;;;;;;;;;;5010318;28;20053;-58
2023/04/10 06:41:05;;;;;;;9.00;5.10;;;;;;;;;;5005450;28;20050;-55
2023/04/10 06:43:35;;;;;;;9.50;5.18;;;;;;;;;;5011709;28;20049;-57
2023/04/10 06:46:04;;;;;;;7.80;4.72;;;;;;;;;;5011918;28;20046;-56
2023/04/10 06:48:31;;;;;;;7.63;4.55;;;;;;;;;;5012225;28;20029;-56
2023/04/10 06:51:00;;;;;;;8.40;4.97;;;;;;;;;;5011525;28;20053;-56
2023/04/10 06:53:27;;;;;;;8.85;5.13;;;;;;;;;;5008236;28;20046;-56
2023/04/10 06:55:53;;;;;;;11.80;5.97;;;;;;;;;;5009274;28;20519;-56
2023/04/10 06:58:19;;;;;;;12.70;6.07;;;;;;;;;;5011512;28;20049;-56
2023/04/10 07:00:46;;;;;;;10.15;5.38;;;;;;;;;;5011113;28;20029;-56
2023/04/10 07:03:12;;;;;;;11.27;5.30;;;;;;;;;;5010949;28;20177;-57
2023/04/10 07:05:38;;;;;;;9.57;5.18;;;;;;;;;;5011890;28;20049;-57
2023/04/10 07:08:04;;;;;;;9.10;5.10;;;;;;;;;;5011490;28;20082;-55
2023/04/10 07:10:30;;;;;;;10.25;5.53;;;;;;;;;;5011043;28;20049;-57
2023/04/10 07:12:57;;;;;;;9.20;4.97;;;;;;;;;;5011574;28;21968;-56
2023/04/10 07:15:24;;;;;;;9.63;5.38;;;;;;;;;;5008551;28;20030;-57
2023/04/10 07:17:51;;;;;;;10.02;5.40;;;;;;;;;;5005445;28;20053;-57
2023/04/10 07:20:17;;;;;;;9.57;5.50;;;;;;;;;;5009123;28;20041;-57
2023/04/10 07:22:43;;;;;;;10.73;5.75;;;;;;;;;;5009982;28;20415;-56
2023/04/10 07:25:10;;;;;;;11.02;5.25;;;;;;;;;;5009280;28;20045;-58
2023/04/10 07:27:36;;;;;;;11.80;5.85;;;;;;;;;;5008110;28;20666;-56
2023/04/10 07:30:02;;;;;;;10.38;5.47;;;;;;;;;;5010339;28;20046;-57
2023/04/10 07:32:28;;;;;;;11.43;5.03;;;;;;;;;;5011413;28;20045;-56
2023/04/10 07:34:54;;;;;;;12.02;6.35;;;;;;;;;;4993808;28;20044;-57
2023/04/10 07:37:21;;;;;;;10.60;5.32;;;;;;;;;;5011120;28;20041;-56
2023/04/10 07:39:47;;;;;;;10.27;5.13;;;;;;;;;;5008852;28;20033;-57
2023/04/10 07:42:13;;;;;;;11.48;5.72;;;;;;;;;;5011208;28;20053;-57
2023/04/10 07:44:39;;;;;;;12.27;5.40;;;;;;;;;;5009130;28;20030;-57
2023/04/10 07:47:05;;;;;;;9.85;5.28;;;;;;;;;;5011169;28;20093;-57
2023/04/10 07:49:31;;;;;;;11.90;6.05;;;;;;;;;;5010521;28;20026;-56
2023/04/10 07:51:57;;;;;;;13.10;5.90;;;;;;;;;;5011050;28;20045;-56
2023/04/10 07:54:24;;;;;;;12.70;5.38;;;;;;;;;;5010958;28;20028;-56
2023/04/10 07:56:53;;;;;;;10.85;5.50;;;;;;;;;;5007853;28;20428;-57
2023/04/10 07:59:19;;;;;;;10.77;5.40;;;;;;;;;;5009916;28;20041;-58
2023/04/10 08:01:45;;;;;;;10.43;5.47;;;;;;;;;;5010948;28;20041;-56
2023/04/10 08:04:11;;;;;;;13.50;6.53;;;;;;;;;;5006072;28;20061;-56
2023/04/10 08:06:38;;;;;;;9.77;5.43;;;;;;;;;;5010553;28;20045;-56
2023/04/10 08:09:04;;;;;;;8.05;4.70;;;;;;;;;;5010177;28;20042;-56
2023/04/10 08:11:33;;;;;;;10.27;5.15;;;;;;;;;;5010731;28;20057;-56
2023/04/10 08:14:00;;;;;;;10.25;4.65;;;;;;;;;;5009456;28;20030;-57
2023/04/10 08:16:31;;;;;;;9.10;4.63;;;;;;;;;;5011002;28;20073;-57
2023/04/10 08:18:59;;;;;;;10.57;4.97;;;;;;;;;;5009955;28;20042;-56
2023/04/10 08:21:26;;;;;;;10.18;4.88;;;;;;;;;;5010188;28;20042;-57
2023/04/10 08:23:54;;;;;;;9.27;4.95;;;;;;;;;;5008546;28;20034;-57
2023/04/10 08:26:20;;;;;;;9.02;4.35;;;;;;;;;;5004522;28;20384;-56
2023/04/10 08:28:49;;;;;;;9.45;4.70;;;;;;;;;;5009652;28;20034;-56
2023/04/10 08:31:20;;;;;;;8.13;4.05;;;;;;;;;;5009448;28;20050;-56
2023/04/10 08:33:46;;;;;;;8.02;4.22;;;;;;;;;;5009655;28;20050;-58
2023/04/10 08:36:16;;;;;;;8.43;4.00;;;;;;;;;;5010336;28;20057;-58
2023/04/10 08:38:44;;;;;;;9.10;4.38;;;;;;;;;;5009820;28;20037;-56
2023/04/10 08:41:15;;;;;;;7.60;4.05;;;;;;;;;;5009620;28;20034;-56
2023/04/10 08:43:42;;;;;;;8.68;4.82;;;;;;;;;;5009855;28;20046;-57
2023/04/10 08:46:08;;;;;;;9.88;4.47;;;;;;;;;;5009672;28;20045;-56
2023/04/10 08:48:44;;;;;;;7.57;3.97;;;;;;;;;;5010358;28;20038;-57
2023/04/10 08:51:16;;;;;;;10.07;4.55;;;;;;;;;;5009695;28;20033;-57
2023/04/10 08:53:43;;;;;;;7.63;4.18;;;;;;;;;;5009785;28;20034;-58
2023/04/10 08:56:15;;;;;;;7.13;4.07;;;;;;;;;;5009907;28;20034;-57
2023/04/10 08:58:42;;;;;;;8.18;4.60;;;;;;;;;;5009417;28;20041;-57
2023/04/10 09:01:12;;;;;;;8.32;4.50;;;;;;;;;;5009478;28;20097;-57
2023/04/10 09:03:38;;;;;;;7.35;4.30;;;;;;;;;;5010112;28;20041;-57
2023/04/10 09:06:05;;;;;;;7.80;4.40;;;;;;;;;;5005653;28;20041;-57
2023/04/10 09:08:31;;;;;;;6.40;4.00;;;;;;;;;;5009849;28;20049;-57
2023/04/10 09:10:57;;;;;;;7.68;3.75;;;;;;;;;;5003957;28;20050;-57
2023/04/10 09:13:41;;;;;;;8.07;4.13;;;;;;;;;;5009197;28;20566;-57
2023/04/10 09:16:08;;;;;;;6.90;4.20;;;;;;;;;;5009709;28;20034;-57
2023/04/10 09:18:50;;;;;;;7.82;4.28;;;;;;;;;;5009626;28;20056;-57
2023/04/10 09:21:18;;;;;;;6.68;3.95;;;;;;;;;;5009233;28;20041;-57
2023/04/10 09:23:46;;;;;;;6.85;3.70;;;;;;;;;;5008964;28;20526;-58
2023/04/10 09:26:32;;;;;;;5.78;3.40;;;;;;;;;;5012204;28;20364;-57
2023/04/10 09:29:05;;;;;;;7.13;3.22;;;;;;;;;;5012691;28;20388;-56
2023/04/10 09:31:36;;;;;;;5.60;3.47;;;;;;;;;;5012985;28;20042;-58
2023/04/10 09:34:16;;;;;;;5.30;3.30;;;;;;;;;;5010922;28;20057;-58
2023/04/10 09:37:03;;;;;;;5.82;3.17;;;;;;;;;;5033298;28;20030;-57
2023/04/10 09:39:41;;;;;;;6.10;3.65;;;;;;;;;;5011561;28;20046;-57
2023/04/10 09:42:08;;;;;;;5.32;3.53;;;;;;;;;;5010721;28;20408;-57
2023/04/10 09:44:37;;;;;;;4.40;2.85;;;;;;;;;;5012396;28;20045;-57
2023/04/10 09:47:12;;;;;;;5.47;3.23;;;;;;;;;;5005780;28;20042;-58
2023/04/10 09:49:49;;;;;;;5.68;3.35;;;;;;;;;;5012540;28;20403;-58
2023/04/10 09:52:26;;;;;;;5.30;3.30;;;;;;;;;;5013371;28;20049;-58
2023/04/10 09:54:57;;;;;;;5.60;3.30;;;;;;;;;;5010131;28;20040;-58
2023/04/10 09:57:26;;;;;;;6.35;3.67;;;;;;;;;;5013154;28;20049;-58
2023/04/10 09:59:54;;;;;;;6.28;3.40;;;;;;;;;;5012000;28;20034;-57
2023/04/10 10:02:22;;;;;;;6.65;4.10;;;;;;;;;;5013335;28;20037;-58
2023/04/10 10:04:49;;;;;;;4.28;3.10;;;;;;;;;;5007766;28;20536;-57
2023/04/10 10:07:17;;;;;;;6.28;3.20;;;;;;;;;;5008529;28;20052;-58
2023/04/10 10:09:44;;;;;;;5.40;3.75;;;;;;;;;;5010953;28;20392;-57
2023/04/10 10:12:12;;;;;;;5.32;2.90;;;;;;;;;;5012680;28;20049;-57
2023/04/10 10:14:49;;;;;;;5.20;3.15;;;;;;;;;;5012086;28;20041;-58
2023/04/10 10:17:20;;;;;;;4.38;2.95;;;;;;;;;;5012980;28;20053;-58
2023/04/10 10:19:55;;;;;;;5.13;2.95;;;;;;;;;;5011607;28;20042;-57
2023/04/10 10:22:25;;;;;;;3.75;2.55;;;;;;;;;;5012714;28;20041;-58
2023/04/10 10:24:55;;;;;;;3.58;2.38;;;;;;;;;;5011990;28;20372;-58
2023/04/10 10:27:26;;;;;;;3.72;2.30;;;;;;;;;;5012787;28;20030;-57
2023/04/10 10:29:53;;;;;;;4.20;2.53;;;;;;;;;;5011450;28;20030;-58
2023/04/10 10:32:21;;;;;;;3.03;2.35;;;;;;;;;;5012023;28;20045;-57
2023/04/10 10:34:51;;;;;;;3.35;2.30;;;;;;;;;;5012093;28;20033;-57
2023/04/10 10:37:21;;;;;;;3.70;2.28;;;;;;;;;;5012243;28;20404;-59
2023/04/10 10:40:11;;;;;;;2.58;2.13;;;;;;;;;;5011522;28;20050;-58
2023/04/10 10:42:52;;;;;;;5.25;2.38;;;;;;;;;;5012131;28;20418;-58
2023/04/10 10:45:25;;;;;;;3.35;2.20;;;;;;;;;;5011411;28;20029;-58
2023/04/10 10:47:53;;;;;;;3.55;2.65;;;;;;;;;;5009475;28;20034;-58
2023/04/10 10:50:23;;;;;;;4.90;3.17;;;;;;;;;;5010496;28;20230;-57
2023/04/10 10:52:56;;;;;;;4.40;2.45;;;;;;;;;;5012296;28;20034;-58
2023/04/10 10:55:26;;;;;;;4.20;3.00;;;;;;;;;;5008224;28;20029;-58
2023/04/10 10:57:57;;;;;;;4.18;2.88;;;;;;;;;;5009808;28;20511;-59
2023/04/10 11:00:24;;;;;;;3.72;2.50;;;;;;;;;;5011603;28;20034;-57
2023/04/10 11:03:06;;;;;;;3.90;2.92;;;;;;;;;;5011947;28;20041;-58
2023/04/10 11:06:05;;;;;;;3.40;2.40;;;;;;;;;;5011842;28;20034;-58
2023/04/10 11:08:34;;;;;;;4.03;2.80;;;;;;;;;;5012178;28;20061;-58
2023/04/10 11:11:14;;;;;;;6.72;2.80;;;;;;;;;;5011344;28;20045;-58
2023/04/10 11:14:02;;;;;;;4.72;3.30;;;;;;;;;;5009087;28;20061;-58
2023/04/10 11:16:35;;;;;;;3.55;2.40;;;;;;;;;;5011998;28;20030;-57
2023/04/10 11:19:03;;;;;;;3.08;2.33;;;;;;;;;;5011592;28;20034;-57
2023/04/10 11:21:30;;;;;;;3.08;2.17;;;;;;;;;;5010871;28;20510;-59
2023/04/10 11:23:56;;;;;;;3.50;2.22;;;;;;;;;;5011533;28;20057;-57
2023/04/10 11:29:01;;;;;;;3.42;2.30;;;;;;;;;;5011229;28;20053;-59
2023/04/10 11:31:28;;;;;;;3.67;2.65;;;;;;;;;;5011448;28;20030;-59
2023/04/10 11:34:02;;;;;;;3.72;2.58;;;;;;;;;;5011388;28;20041;-58
2023/04/10 11:36:30;;;;;;;3.90;2.72;;;;;;;;;;5011692;28;20041;-57
2023/04/10 11:39:09;;;;;;;3.05;2.00;;;;;;;;;;5011056;28;20403;-58
2023/04/10 11:41:38;;;;;;;3.20;2.47;;;;;;;;;;5011697;28;20380;-59
2023/04/10 11:44:06;;;;;;;3.38;2.40;;;;;;;;;;5010544;28;20040;-58
2023/04/10 11:46:40;;;;;;;3.17;2.50;;;;;;;;;;5010639;28;20045;-58
2023/04/10 11:49:09;;;;;;;3.78;2.88;;;;;;;;;;5000878;28;20046;-58
2023/04/10 11:51:36;;;;;;;3.47;2.35;;;;;;;;;;5011607;28;20057;-58
2023/04/10 11:54:11;;;;;;;3.08;2.22;;;;;;;;;;5010580;28;20042;-58
2023/04/10 11:56:39;;;;;;;3.17;2.30;;;;;;;;;;5010157;28;20029;-58
2023/04/10 11:59:08;;;;;;;3.78;2.42;;;;;;;;;;5010348;28;20057;-58
2023/04/10 12:01:34;;;;;;;2.40;1.92;;;;;;;;;;4991258;28;20037;-58
2023/04/10 12:04:01;;;;;;;2.40;1.95;;;;;;;;;;5010491;28;20050;-58
2023/04/10 12:06:27;;;;;;;2.88;1.90;;;;;;;;;;5011325;28;20037;-58
2023/04/10 12:08:54;;;;;;;4.05;2.35;;;;;;;;;;5011140;28;20046;-59
2023/04/10 12:11:22;;;;;;;3.08;2.17;;;;;;;;;;5010640;28;20029;-59
2023/04/10 12:13:54;;;;;;;2.70;1.98;;;;;;;;;;5010445;28;20038;-59
2023/04/10 12:16:21;;;;;;;4.38;2.15;;;;;;;;;;5010956;28;20495;-59
2023/04/10 12:18:48;;;;;;;3.97;2.55;;;;;;;;;;5010920;28;20049;-59
2023/04/10 12:21:14;;;;;;;4.70;2.97;;;;;;;;;;5010355;28;20060;-58
2023/04/10 12:23:41;;;;;;;4.10;3.00;;;;;;;;;;5010497;28;20053;-58
2023/04/10 12:26:15;;;;;;;3.63;2.58;;;;;;;;;;5015351;28;20044;-56
2023/04/10 12:28:51;;;;;;;3.08;2.35;;;;;;;;;;5010178;28;20034;-59
2023/04/10 12:31:17;;;;;;;3.17;2.40;;;;;;;;;;5009834;28;20078;-58
2023/04/10 12:33:45;;;;;;;3.55;2.50;;;;;;;;;;5008508;28;20053;-59
2023/04/10 12:36:28;;;;;;;2.95;2.28;;;;;;;;;;5010201;28;20026;-58
2023/04/10 12:38:56;;;;;;;4.72;2.63;;;;;;;;;;5009897;28;20042;-58
2023/04/10 12:41:24;;;;;;;4.47;3.67;;;;;;;;;;5009778;28;20041;-58
2023/04/10 12:43:52;;;;;;;4.20;3.10;;;;;;;;;;5007987;28;20041;-58
2023/04/10 12:46:28;;;;;;;5.35;2.92;;;;;;;;;;5009760;28;20042;-58
2023/04/10 12:48:55;;;;;;;4.40;2.75;;;;;;;;;;5010087;28;20033;-58
2023/04/10 12:51:43;;;;;;;3.97;2.67;;;;;;;;;;5009900;28;20046;-58
2023/04/10 12:54:10;;;;;;;4.65;3.00;;;;;;;;;;5003162;28;20034;-59
2023/04/10 12:56:43;;;;;;;4.88;3.30;;;;;;;;;;5010367;28;20519;-59
2023/04/10 12:59:10;;;;;;;5.40;3.25;;;;;;;;;;5008859;28;20638;-58
2023/04/10 13:01:37;;;;;;;6.15;2.97;;;;;;;;;;5007279;28;20046;-58
2023/04/10 13:04:04;;;;;;;5.20;3.22;;;;;;;;;;5000469;28;20492;-58
2023/04/10 13:06:30;;;;;;;6.20;3.33;;;;;;;;;;5006356;28;20037;-59
2023/04/10 13:08:56;;;;;;;5.15;3.30;;;;;;;;;;5009712;28;20073;-59
2023/04/10 13:11:22;;;;;;;5.55;3.60;;;;;;;;;;5009526;28;20036;-58
2023/04/10 13:13:48;;;;;;;5.28;3.40;;;;;;;;;;5009140;28;20041;-58
2023/04/10 13:16:15;;;;;;;9.05;3.40;;;;;;;;;;5009639;28;20041;-58
2023/04/10 13:18:41;;;;;;;6.32;3.50;;;;;;;;;;5009275;28;20050;-58
2023/04/10 13:21:07;;;;;;;5.55;3.17;;;;;;;;;;5008986;28;20038;-58
2023/04/10 13:23:34;;;;;;;4.70;3.10;;;;;;;;;;5009896;28;20030;-57
2023/04/10 13:26:00;;;;;;;5.45;3.25;;;;;;;;;;5009745;28;20033;-58
2023/04/10 13:28:26;;;;;;;6.03;3.80;;;;;;;;;;5009462;28;20378;-58
2023/04/10 13:30:52;;;;;;;5.47;3.53;;;;;;;;;;5009210;28;20604;-59
2023/04/10 13:33:18;;;;;;;6.68;3.28;;;;;;;;;;5009728;28;20038;-59
2023/04/10 13:35:44;;;;;;;6.90;3.42;;;;;;;;;;5009301;28;20057;-59
2023/04/10 13:38:10;;;;;;;4.43;2.67;;;;;;;;;;5009492;28;20155;-60
2023/04/10 13:40:36;;;;;;;5.05;2.92;;;;;;;;;;5008929;28;20050;-58
2023/04/10 13:43:05;;;;;;;6.53;2.83;;;;;;;;;;5009512;28;20045;-59
2023/04/10 13:45:32;;;;;;;5.78;3.00;;;;;;;;;;5009491;28;20034;-58
2023/04/10 13:47:58;;;;;;;4.80;2.97;;;;;;;;;;5009645;28;20037;-59
2023/04/10 13:50:24;;;;;;;4.90;3.03;;;;;;;;;;5008619;28;20038;-58
2023/04/10 13:52:50;;;;;;;6.95;3.38;;;;;;;;;;5007705;28;20538;-58
2023/04/10 13:55:16;;;;;;;4.72;2.90;;;;;;;;;;5009316;28;20034;-58
2023/04/10 13:57:43;;;;;;;4.78;2.85;;;;;;;;;;5009271;28;20026;-58
2023/04/10 14:00:09;;;;;;;4.80;2.95;;;;;;;;;;5007948;28;20042;-58
2023/04/10 14:02:41;;;;;;;15.27;5.78;;;;;;;;;;5006600;28;20492;-57
2023/04/10 14:05:08;;;;;;;9.98;5.18;;;;;;;;;;5009171;28;20411;-58
2023/04/10 14:07:34;;;;;;;8.07;3.88;;;;;;;;;;5009438;28;20496;-58
2023/04/10 14:10:01;;;;;;;7.38;3.42;;;;;;;;;;5008878;28;20417;-58
2023/04/10 14:12:27;;;;;;;5.15;3.08;;;;;;;;;;5012363;28;20040;-58
2023/04/10 14:14:55;;;;;;;6.38;3.47;;;;;;;;;;5012035;28;20496;-58
2023/04/10 14:17:21;;;;;;;6.28;3.92;;;;;;;;;;5011674;28;20034;-58
2023/04/10 14:19:50;;;;;;;6.38;3.75;;;;;;;;;;5004526;28;20038;-57
2023/04/10 14:22:17;;;;;;;5.70;3.67;;;;;;;;;;5012761;28;20037;-58
2023/04/10 14:24:43;;;;;;;9.35;3.45;;;;;;;;;;5011460;28;20042;-58
2023/04/10 14:27:09;;;;;;;6.30;3.45;;;;;;;;;;5012723;28;20042;-57
2023/04/10 14:29:35;;;;;;;5.68;3.13;;;;;;;;;;5011622;28;20030;-58
2023/04/10 14:32:01;;;;;;;5.57;3.70;;;;;;;;;;5010938;28;20447;-58
2023/04/10 14:34:27;;;;;;;7.95;4.07;;;;;;;;;;5011064;28;20037;-58
2023/04/10 14:36:54;;;;;;;7.25;3.53;;;;;;;;;;5012681;28;20041;-58
2023/04/10 14:39:24;;;;;;;5.70;3.35;;;;;;;;;;5011418;28;20037;-58
2023/04/10 14:41:50;;;;;;;;;;;;;;;;;;5010810;28;20034;-59
2023/04/10 14:44:17;;;;;;;5.80;3.45;;;;;;;;;;5011486;28;19914;-58
2023/04/10 14:46:43;;;;;;;9.25;3.78;;;;;;;;;;5009622;28;20412;-57
2023/04/10 14:49:10;;;;;;;6.65;3.63;;;;;;;;;;5011447;28;20041;-58
2023/04/10 14:51:36;;;;;;;5.90;3.67;;;;;;;;;;5012367;28;20041;-59
2023/04/10 14:54:04;;;;;;;8.63;3.90;;;;;;;;;;5011792;28;20038;-59
2023/04/10 14:56:30;;;;;;;7.43;3.42;;;;;;;;;;5008016;28;20029;-58
2023/04/10 14:58:56;;;;;;;5.13;3.22;;;;;;;;;;5011194;28;20037;-59